^^
Station Historical Data
 
Daily Summary for June 24, 2018 Units:  English    Metric   Both
« Previous Day
Next Day »
Daily Weekly Monthly Yearly Custom
  Current: High: Low: Average:
Temperature: 24.9 °F TemperatureC °F 15.6 °F 18 °F
Dew Point: 18.8 °F DewpointC °F 14.8 °F 16 °F
Humidity: 69% Humidity% 68% 88%
Wind Speed: 5.6mph WindSpeedKMHmph 0.0mph 2.5mph
Wind Gust: 5.8mph WindSpeedGustKMHmph - -
WindSSE - - East
Pressure: 1012.7 in PressurehPa in 1007.8 in -
Precipitation: 0.0 in      
Historical Graphs
 
 
Tabular Data for June 24, 2018
Time Temperature Dew Point Pressure Wind Wind Speed Wind Gust Humidity Rainfall Rate (Hourly) solar Conditions
TemperatureC °F DewpointC °F PressurehPa in Calm     Humidity% HourlyPrecipMM in SoftwareType W/m2 Conditions
00:04 18.3 °F 16.3 °F 1008.1 in Calm     88% 0.0 in WeatherDisplay:10.37 W/m2 CLR
00:09 18.3 °F 16.3 °F 1008.1 in Calm     88% 0.0 in WeatherDisplay:10.37 W/m2 CLR
00:14 18.3 °F 16.3 °F 1008.1 in Calm     88% 0.0 in WeatherDisplay:10.37 W/m2 CLR
00:19 18.3 °F 16.3 °F 1008.1 in Calm     88% 0.0 in WeatherDisplay:10.37 W/m2 CLR
00:24 18.3 °F 16.3 °F 1008.1 in Calm     88% 0.0 in WeatherDisplay:10.37 W/m2 CLR
00:29 18.2 °F 16.2 °F 1007.8 in NE 1.9 mph   88% 0.0 in WeatherDisplay:10.37 W/m2 CLR
00:34 18.2 °F 16.2 °F 1007.8 in NE 1.9 mph 0.3 mph 88% 0.0 in WeatherDisplay:10.37 W/m2 CLR
00:39 18.2 °F 16.2 °F 1007.8 in Calm     88% 0.0 in WeatherDisplay:10.37 W/m2 CLR
00:44 18.1 °F 16.1 °F 1007.8 in Calm     88% 0.0 in WeatherDisplay:10.37 W/m2 CLR
00:49 18.1 °F 16.1 °F 1007.8 in Calm     88% 0.0 in WeatherDisplay:10.37 W/m2 CLR
00:54 18.0 °F 16.0 °F 1008.1 in Calm     88% 0.0 in WeatherDisplay:10.37 W/m2 CLR
00:59 17.8 °F 15.8 °F 1008.1 in Calm     88% 0.0 in WeatherDisplay:10.37 W/m2 CLR
01:04 17.8 °F 15.8 °F 1008.1 in Calm     88% 0.0 in WeatherDisplay:10.37 W/m2 CLR
01:09 17.7 °F 15.7 °F 1008.1 in Calm     88% 0.0 in WeatherDisplay:10.37 W/m2 CLR
01:14 17.7 °F 15.7 °F 1008.1 in Calm     88% 0.0 in WeatherDisplay:10.37 W/m2 CLR
01:19 17.6 °F 15.6 °F 1008.1 in Calm     88% 0.0 in WeatherDisplay:10.37 W/m2 CLR
01:24 17.4 °F 15.7 °F 1008.1 in Calm     90% 0.0 in WeatherDisplay:10.37 W/m2 CLR
01:29 17.3 °F 15.8 °F 1008.5 in Calm     91% 0.0 in WeatherDisplay:10.37 W/m2 CLR
01:34 17.2 °F 15.7 °F 1008.1 in Calm     91% 0.0 in WeatherDisplay:10.37 W/m2 CLR
01:39 17.1 °F 15.6 °F 1008.1 in Calm     91% 0.0 in WeatherDisplay:10.37 W/m2 CLR
01:44 16.9 °F 15.4 °F 1008.1 in Calm     91% 0.0 in WeatherDisplay:10.37 W/m2 CLR
01:49 16.9 °F 15.4 °F 1008.1 in Calm     91% 0.0 in WeatherDisplay:10.37 W/m2 CLR
01:54 16.7 °F 15.2 °F 1008.1 in Calm     91% 0.0 in WeatherDisplay:10.37 W/m2 CLR
01:59 16.7 °F 15.2 °F 1008.1 in Calm     91% 0.0 in WeatherDisplay:10.37 W/m2 CLR
02:04 16.6 °F 15.1 °F 1008.1 in Calm     91% 0.0 in WeatherDisplay:10.37 W/m2 CLR
02:09 16.4 °F 14.9 °F 1008.2 in Calm     91% 0.0 in WeatherDisplay:10.37 W/m2 CLR
02:14 16.4 °F 14.9 °F 1008.2 in Calm     91% 0.0 in WeatherDisplay:10.37 W/m2 CLR
02:19 16.5 °F 15.4 °F 1008.6 in Calm     93% 0.0 in WeatherDisplay:10.37 W/m2 CLR
02:24 16.5 °F 15.4 °F 1008.2 in Calm     93% 0.0 in WeatherDisplay:10.37 W/m2 CLR
02:29 16.4 °F 15.3 °F 1008.2 in Calm     93% 0.0 in WeatherDisplay:10.37 W/m2 CLR
02:34 16.4 °F 15.3 °F 1008.2 in Calm     93% 0.0 in WeatherDisplay:10.37 W/m2 CLR
02:39 16.4 °F 15.3 °F 1008.2 in Calm     93% 0.0 in WeatherDisplay:10.37 W/m2 CLR
02:44 16.3 °F 15.2 °F 1008.2 in Calm     93% 0.0 in WeatherDisplay:10.37 W/m2 CLR
02:49 16.2 °F 15.1 °F 1008.6 in Calm     93% 0.0 in WeatherDisplay:10.37 W/m2 CLR
02:54 16.1 °F 14.9 °F 1008.2 in Calm     93% 0.0 in WeatherDisplay:10.37 W/m2 CLR
02:59 15.9 °F 14.8 °F 1008.6 in Calm     93% 0.0 in WeatherDisplay:10.37 W/m2 CLR
03:04 15.9 °F 14.8 °F 1008.2 in Calm     93% 0.0 in WeatherDisplay:10.37 W/m2 CLR
03:09 15.9 °F 14.8 °F 1008.6 in Calm     93% 0.0 in WeatherDisplay:10.37 W/m2 CLR
03:14 16.1 °F 14.9 °F 1008.2 in Calm     93% 0.0 in WeatherDisplay:10.37 W/m2 CLR
03:19 16.3 °F 15.5 °F 1008.6 in Calm     95% 0.0 in WeatherDisplay:10.37 W/m2 CLR
03:24 16.1 °F 15.3 °F 1008.2 in Calm     95% 0.0 in WeatherDisplay:10.37 W/m2 CLR
03:29 15.9 °F 15.1 °F 1008.7 in Calm     95% 0.0 in WeatherDisplay:10.37 W/m2 CLR
03:34 15.9 °F 15.1 °F 1008.3 in Calm     95% 0.0 in WeatherDisplay:10.37 W/m2 CLR
03:39 15.9 °F 15.1 °F 1008.7 in Calm     95% 0.0 in WeatherDisplay:10.37 W/m2 CLR
03:44 15.9 °F 15.1 °F 1008.7 in Calm     95% 0.0 in WeatherDisplay:10.37 W/m2 CLR
03:49 15.9 °F 15.1 °F 1009.0 in Calm     95% 0.0 in WeatherDisplay:10.37 W/m2 CLR
03:54 15.8 °F 15.0 °F 1009.3 in Calm     95% 0.0 in WeatherDisplay:10.37 W/m2 CLR
03:59 15.7 °F 14.9 °F 1009.0 in Calm     95% 0.0 in WeatherDisplay:10.37 W/m2 CLR
04:04 15.7 °F 14.9 °F 1009.0 in ESE 1.9 mph 0.3 mph 95% 0.0 in WeatherDisplay:10.37 W/m2 CLR
04:09 15.7 °F 14.9 °F 1009.0 in Calm     95% 0.0 in WeatherDisplay:10.37 W/m2 CLR
04:14 15.7 °F 14.9 °F 1009.0 in ENE 1.4 mph   95% 0.0 in WeatherDisplay:10.37 W/m2 CLR
04:19 15.7 °F 14.9 °F 1009.3 in Calm   0.3 mph 95% 0.0 in WeatherDisplay:10.37 W/m2 CLR
04:24 15.7 °F 14.9 °F 1009.3 in Calm     95% 0.0 in WeatherDisplay:10.37 W/m2 CLR
04:29 15.7 °F 14.9 °F 1009.4 in Calm     95% 0.0 in WeatherDisplay:10.37 W/m2 CLR
04:34 15.6 °F 14.8 °F 1009.8 in Calm     95% 0.0 in WeatherDisplay:10.37 W/m2 CLR
04:39 15.7 °F 15.1 °F 1009.8 in Calm     96% 0.0 in WeatherDisplay:10.37 W/m2 CLR
04:44 15.7 °F 15.1 °F 1009.8 in Calm     96% 0.0 in WeatherDisplay:10.37 W/m2 CLR
04:49 15.7 °F 15.1 °F 1009.8 in Calm     96% 0.0 in WeatherDisplay:10.37 W/m2 CLR
04:54 15.7 °F 15.1 °F 1009.8 in Calm     96% 0.0 in WeatherDisplay:10.37 W/m2 CLR
04:59 15.8 °F 15.2 °F 1009.8 in ESE 3.2 mph 0.3 mph 96% 0.0 in WeatherDisplay:10.37 W/m2 CLR
05:04 15.9 °F 15.3 °F 1010.1 in Calm     96% 0.0 in WeatherDisplay:10.37 W/m2 CLR
05:09 15.9 °F 15.3 °F 1009.8 in Calm     96% 0.0 in WeatherDisplay:10.37 W/m2 CLR
05:14 15.9 °F 15.3 °F 1010.1 in Calm     96% 0.0 in WeatherDisplay:10.37 W/m2 CLR
05:19 16.1 °F 15.4 °F 1010.1 in Calm   0.3 mph 96% 0.0 in WeatherDisplay:10.37 W/m2 CLR
05:24 15.9 °F 15.3 °F 1009.8 in Calm     96% 0.0 in WeatherDisplay:10.37 W/m2 CLR
05:29 15.9 °F 15.3 °F 1010.1 in ENE 1.4 mph 0.3 mph 96% 0.0 in WeatherDisplay:10.37 W/m2 CLR
05:34 16.1 °F 15.4 °F 1009.8 in NE 1.9 mph 0.3 mph 96% 0.0 in WeatherDisplay:10.37 W/m2 CLR
05:39 16.2 °F 15.6 °F 1010.2 in Calm     96% 0.0 in WeatherDisplay:10.37 W/m2 CLR
05:44 16.4 °F 15.8 °F 1010.2 in East 3.7 mph 1.4 mph 96% 0.0 in WeatherDisplay:10.37 W/m2 CLR
05:49 16.5 °F 15.8 °F 1010.5 in ENE 3.7 mph 2.1 mph 96% 0.0 in WeatherDisplay:10.37 W/m2 CLR
05:54 16.6 °F 15.9 °F 1010.5 in SE 5.6 mph 1.4 mph 96% 0.0 in WeatherDisplay:10.37 W/m2 CLR
05:59 16.7 °F 16.1 °F 1010.5 in ENE 3.7 mph 1.8 mph 96% 0.0 in WeatherDisplay:10.37 W/m2 CLR
06:04 16.7 °F 16.1 °F 1010.2 in NNE 1.9 mph 1.4 mph 96% 0.0 in WeatherDisplay:10.37 W/m2 CLR
06:09 16.7 °F 16.1 °F 1010.5 in ENE 5.6 mph 1.8 mph 96% 0.0 in WeatherDisplay:10.37 W/m2 CLR
06:14 16.7 °F 16.1 °F 1010.5 in Calm   0.6 mph 96% 0.0 in WeatherDisplay:10.37 W/m2 CLR
06:19 16.8 °F 16.2 °F 1010.5 in NE 1.9 mph 0.3 mph 96% 0.0 in WeatherDisplay:10.37 W/m2 CLR
06:24 16.8 °F 16.2 °F 1010.5 in ESE 4.7 mph 1.8 mph 96% 0.0 in WeatherDisplay:10.37 W/m2 CLR
06:29 16.8 °F 16.2 °F 1010.5 in East 5.6 mph 2.9 mph 96% 0.0 in WeatherDisplay:10.37 W/m2 CLR
06:34 16.9 °F 16.3 °F 1010.9 in ESE 9.7 mph 2.6 mph 96% 0.0 in WeatherDisplay:10.37 W/m2 CLR
06:39 16.9 °F 16.3 °F 1010.9 in SSE 3.7 mph 2.6 mph 96% 0.0 in WeatherDisplay:10.37 W/m2 CLR
06:44 16.9 °F 16.3 °F 1010.9 in ENE 9.3 mph 2.6 mph 96% 0.0 in WeatherDisplay:10.37 W/m2 CLR
06:49 17.2 °F 16.4 °F 1010.9 in East 5.6 mph 3.5 mph 95% 0.0 in WeatherDisplay:10.37 W/m2 FEW
06:54 17.2 °F 16.4 °F 1010.9 in SE 6.4 mph 3.5 mph 95% 0.0 in WeatherDisplay:10.37 W/m2 FEW
06:59 17.3 °F 16.2 °F 1010.9 in NNE 5.6 mph 3.5 mph 93% 0.0 in WeatherDisplay:10.37 W/m2 FEW
07:04 18.1 °F 16.6 °F 1010.9 in ENE 3.7 mph 2.6 mph 91% 0.0 in WeatherDisplay:10.37 W/m2 CLR
07:09 18.8 °F 16.8 °F 1011.2 in East 1.9 mph 1.4 mph 88% 0.0 in WeatherDisplay:10.37 W/m2 CLR
07:14 19.4 °F 17.0 °F 1011.2 in WSW 6.4 mph 3.2 mph 86% 0.0 in WeatherDisplay:10.37 W/m2 CLR
07:19 19.9 °F 17.3 °F 1011.3 in NE 5.6 mph 3.2 mph 85% 0.0 in WeatherDisplay:10.37 W/m2 CLR
07:24 20.1 °F 17.1 °F 1011.3 in West 6.4 mph 2.1 mph 83% 0.0 in WeatherDisplay:10.37 W/m2 CLR
07:29 20.5 °F 17.1 °F 1011.0 in NNE 5.6 mph 3.5 mph 81% 0.0 in WeatherDisplay:10.37 W/m2 CLR
07:34 20.7 °F 17.3 °F 1011.0 in East 9.7 mph 4.0 mph 81% 0.0 in WeatherDisplay:10.37 W/m2 CLR
07:39 20.5 °F 17.1 °F 1011.0 in NE 3.7 mph 4.7 mph 81% 0.0 in WeatherDisplay:10.37 W/m2 CLR
07:44 20.6 °F 17.0 °F 1011.0 in North 5.6 mph 4.0 mph 80% 0.0 in WeatherDisplay:10.37 W/m2 CLR
07:49 20.8 °F 17.2 °F 1011.0 in ESE 9.3 mph 3.5 mph 80% 0.0 in WeatherDisplay:10.37 W/m2 CLR
07:54 21.2 °F 17.4 °F 1011.0 in NNE 5.6 mph 4.7 mph 79% 0.0 in WeatherDisplay:10.37 W/m2 CLR
07:59 21.4 °F 17.4 °F 1011.0 in NNE 9.7 mph 5.5 mph 78% 0.0 in WeatherDisplay:10.37 W/m2 CLR
08:04 21.6 °F 17.2 °F 1011.0 in NNW 9.3 mph 5.8 mph 76% 0.0 in WeatherDisplay:10.37 W/m2 CLR
08:09 21.4 °F 17.4 °F 1011.0 in ESE 5.6 mph 4.7 mph 78% 0.0 in WeatherDisplay:10.37 W/m2 CLR
08:14 21.9 °F 17.5 °F 1011.0 in NNE 7.4 mph 4.0 mph 76% 0.0 in WeatherDisplay:10.37 W/m2 CLR
08:19 22.4 °F 17.7 °F 1011.0 in North 9.3 mph 5.0 mph 75% 0.0 in WeatherDisplay:10.37 W/m2 CLR
08:24 22.4 °F 17.7 °F 1011.0 in ESE 5.6 mph 4.3 mph 75% 0.0 in WeatherDisplay:10.37 W/m2 CLR
08:29 22.5 °F 17.8 °F 1011.7 in East 5.6 mph 4.7 mph 75% 0.0 in WeatherDisplay:10.37 W/m2 CLR
08:34 23.0 °F 18.1 °F 1011.7 in ENE 6.4 mph 4.0 mph 74% 0.0 in WeatherDisplay:10.37 W/m2 CLR
08:39 23.2 °F 18.3 °F 1012.0 in East 5.6 mph 4.3 mph 74% 0.0 in WeatherDisplay:10.37 W/m2 CLR
08:44 23.3 °F 18.4 °F 1012.0 in ENE 5.6 mph 3.5 mph 74% 0.0 in WeatherDisplay:10.37 W/m2 CLR
08:49 23.3 °F 18.4 °F 1011.7 in West 5.6 mph 4.3 mph 74% 0.0 in WeatherDisplay:10.37 W/m2 CLR
08:54 23.8 °F 18.2 °F 1012.0 in NNE 6.4 mph 5.0 mph 71% 0.0 in WeatherDisplay:10.37 W/m2 CLR
08:59 23.7 °F 18.1 °F 1011.7 in East 7.9 mph 5.8 mph 71% 0.0 in WeatherDisplay:10.37 W/m2 CLR
09:04 23.3 °F 18.2 °F 1012.3 in SSW 3.7 mph 3.5 mph 73% 0.0 in WeatherDisplay:10.37 W/m2 CLR
09:09 23.9 °F 18.3 °F 1012.0 in NNE 5.6 mph 4.0 mph 71% 0.0 in WeatherDisplay:10.37 W/m2 CLR
09:14 24.4 °F 18.6 °F 1012.3 in NNE 5.6 mph 4.0 mph 70% 0.0 in WeatherDisplay:10.37 W/m2 CLR
09:19 24.4 °F 18.6 °F 1012.0 in ESE 5.6 mph 4.0 mph 70% 0.0 in WeatherDisplay:10.37 W/m2 CLR
09:24 24.7 °F 18.4 °F 1012.3 in North 9.3 mph 4.7 mph 68% 0.0 in WeatherDisplay:10.37 W/m2 CLR
09:29 24.9 °F 19.1 °F 1012.7 in SSE 5.6 mph 3.2 mph 70% 0.0 in WeatherDisplay:10.37 W/m2 CLR
09:34 24.9 °F 18.8 °F 1012.7 in SSE 5.6 mph 5.8 mph 69% 0.0 in WeatherDisplay:10.37 W/m2 CLR
Juneau County Weather
Compliments of Weather Underground - 3.25 mb